Bluff City, AR (71722)

8:17 AM CST on February 14, 2016 (GMT -0600)
HopePrescott.com Hope Office | | Change Station
CLOSE
Current Station
Personal Weather Station
Location: Hope, AR
Elevation: 357 ft
Nearby Weather Stations

Elev 357 ft 33.66 °N, 93.59 °W | Updated 5 seconds ago

Overcast
Overcast
42.6 °F
Feels Like 43 °F
N
0.7
Wind Variable Wind from WSW
Gusts 3.1 mph

Today
High -- | Low -- °F
--% Chance of Precip.
Yesterday
High -- | Low -- °F
Precip. -- in
Pressure 30.14 in
Visibility 10.0 miles
Clouds Scattered Clouds 3000 ft
Overcast 5000 ft
Windchill 43 °F
Dew Point 27 °F
Humidity 53%
Rainfall 0.00 in
Snow Depth Not available.
6:58 AM 5:55 PM
Waxing Crescent, 42% visible
METAR KCDH 141355Z AUTO 13004KT 10SM SCT030 OVC050 05/M07 A3014 RMK AO2
Pressure 30.14 in
Visibility 10.0 miles
Clouds Scattered Clouds 3000 ft
Overcast 5000 ft
Windchill 43 °F
Dew Point 27 °F
Humidity 53%
Rainfall 0.00 in
Snow Depth Not available.
6:58 AM 5:55 PM
Waxing Crescent, 42% visible
METAR KCDH 141355Z AUTO 13004KT 10SM SCT030 OVC050 05/M07 A3014 RMK AO2

10-Day Weather Forecast

Almanac

Astronomy

Feb. 14, 2016 Rise Set
Actual Time
Civil Twilight
Nautical Twilight
Astronomical Twilight
Moon
Length of Visible Light
Length of Day
Tomorrow will be .
, % of the Moon is Illuminated

Today's Extremes

State Highs State Lows

Community

WunderPhotos

Upload Photos

1,892,797 photos uploaded!

WunderBlog® & News

Nearby

Air Quality

  Air Quality AQ Index Pollutant
Not available.

Snow Depth

Station Depth Elevation

Earthquake Activity

City Distance Mag. Time & Date
Minimum magnitude displayed is 2.5.

Coastal Water Temperatures

Place Temperature

Stations

Nearby Weather Stations

Station Location Temp. Windchill Dew Point Humidity Wind Precip. Elev Updated Type
                   

Watches & Warnings

There are currently no watches in effect.